메인 페이지
METAR-TAF:

METAR-TAF

공항 :

시우다드후아레스, 멕시코

위도: 31-38N, 경도: 106-26W, 고도: 1171m

현재 날씨관측

예보는 2 시간 19분 전, 11:40시(UTC)에 발표되었습니다.
서남서3kt
온도 26°C
습도 28%
기압 1017 hPa
시정: 16.1km
고도 10000ft 상공 구름 조금
고도 25000ft 상공 구름 조금

METAR: MMCS 131140Z 25003KT 10SM FEW100 FEW250 26/06 A3003 RMK SLP025 5//// 964 8/035 RTS

시각: 07:59 (13:59 UTC)

예보

예보는 9 시간 22분 전, 04:37시(UTC)에 발표되었습니다.
예보 대상 시간: 13일 06시부터 14일 06시까지 (UTC)
5kt
시정: 10km
맑음
13일 2100시부터 (UTC)
남동10kt
시정: 10km
맑음
일시적
13일 23시부터 14일 03시까지 (UTC)
남동15kt, 순간 최대 풍속 25kt
시정: 3.2km
날린먼지,

TAF: MMCS 130437Z 1306/1406 36005KT P6SM SKC FM132100 13010KT P6SM SKC TEMPO 1323/1403 2SM BLDU 14015G25KT

4,000개 이상의 공항 관측 자료 및 예보 (METAR 및 TAF 보고).

지도상에서 검색 가능한 기상관측소가 노란 점과 빨간 점으로 표시되어 있습니다.

기상관측소 명을 보려면 표시 위로 마우스를 이동하세요.

날씨 관측과 예보를 보려면 클릭하세요.

지도 변경 : 확대하려면 엑스 표시가 있는 녹색 버튼, 축소하려면 빼기 표시가 있는 녹색 버튼, 다음 페이지의 지도를 보려면 녹색 화살표를 클릭하세요.


METAR-TAF: